createdAt,value
2023-05-05T00:00:22.412Z,10.19
2023-05-05T00:02:49.128Z,10.18
2023-05-05T00:05:15.927Z,9.99
2023-05-05T00:07:42.711Z,9.99
2023-05-05T00:10:11.104Z,9.84
2023-05-05T00:12:37.920Z,9.76
2023-05-05T00:15:05.552Z,9.42
2023-05-05T00:17:32.244Z,9.35
2023-05-05T00:19:58.902Z,9.16
2023-05-05T00:22:25.690Z,9.08
2023-05-05T00:24:52.360Z,9.08
2023-05-05T00:27:20.392Z,8.98
2023-05-05T00:29:47.082Z,8.91
2023-05-05T00:32:13.773Z,8.97
2023-05-05T00:34:40.410Z,8.98
2023-05-05T00:37:07.108Z,8.73
2023-05-05T00:39:33.796Z,8.74
2023-05-05T00:42:00.429Z,8.78
2023-05-05T00:44:35.850Z,8.71
2023-05-05T00:47:02.554Z,8.75
2023-05-05T00:49:29.253Z,8.70
2023-05-05T00:51:55.990Z,8.67
2023-05-05T00:54:22.708Z,8.60
2023-05-05T00:56:49.882Z,8.56
2023-05-05T00:59:16.627Z,8.43
2023-05-05T01:01:45.095Z,8.33
2023-05-05T01:04:11.773Z,8.34
2023-05-05T01:06:42.781Z,8.26
2023-05-05T01:09:19.931Z,8.25
2023-05-05T01:11:49.417Z,8.23
2023-05-05T01:14:17.235Z,8.19
2023-05-05T01:16:52.291Z,8.09
2023-05-05T01:19:31.095Z,8.07
2023-05-05T01:22:00.464Z,8.05
2023-05-05T01:24:42.661Z,8.09
2023-05-05T01:27:26.387Z,7.98
2023-05-05T01:30:28.616Z,7.98
2023-05-05T01:32:58.390Z,7.88
2023-05-05T01:35:28.422Z,7.77
2023-05-05T01:37:57.789Z,8.02
2023-05-05T01:40:26.293Z,7.86
2023-05-05T01:42:52.966Z,7.96
2023-05-05T01:45:20.619Z,8.01
2023-05-05T01:47:47.372Z,7.92
2023-05-05T01:50:15.466Z,8.02
2023-05-05T01:52:42.162Z,7.84
2023-05-05T01:55:09.144Z,7.70
2023-05-05T01:57:35.900Z,7.74
2023-05-05T02:00:02.600Z,7.71
2023-05-05T02:02:29.328Z,7.70
2023-05-05T02:04:56.086Z,7.67
2023-05-05T02:07:24.176Z,7.60
2023-05-05T02:09:51.195Z,7.51
2023-05-05T02:12:17.973Z,7.40
2023-05-05T02:14:44.653Z,7.38
2023-05-05T02:17:11.429Z,7.50
2023-05-05T02:19:38.997Z,7.54
2023-05-05T02:22:05.818Z,7.64
2023-05-05T02:24:33.948Z,7.54
2023-05-05T02:27:00.650Z,7.55
2023-05-05T02:29:29.190Z,7.50
2023-05-05T02:31:58.103Z,7.38
2023-05-05T02:34:26.189Z,7.42
2023-05-05T02:36:53.679Z,7.30
2023-05-05T02:39:21.922Z,7.36
2023-05-05T02:41:49.944Z,7.27
2023-05-05T02:44:16.681Z,7.24
2023-05-05T02:46:43.456Z,7.16
2023-05-05T02:49:10.204Z,7.20
2023-05-05T02:51:36.907Z,7.27
2023-05-05T02:54:04.014Z,7.26
2023-05-05T02:56:34.432Z,7.17
2023-05-05T02:59:08.798Z,7.09
2023-05-05T03:01:39.639Z,7.05
2023-05-05T03:04:07.450Z,7.02
2023-05-05T03:06:36.864Z,7.05
2023-05-05T03:09:09.689Z,7.09
2023-05-05T03:11:38.460Z,7.07
2023-05-05T03:14:08.418Z,7.13
2023-05-05T03:16:35.593Z,7.17
2023-05-05T03:19:03.001Z,7.22
2023-05-05T03:21:29.798Z,7.34
2023-05-05T03:23:57.386Z,7.53
2023-05-05T03:26:24.141Z,7.53
2023-05-05T03:28:50.835Z,7.60
2023-05-05T03:31:18.956Z,7.64
2023-05-05T03:33:45.724Z,7.75
2023-05-05T03:36:12.396Z,7.92
2023-05-05T03:38:39.108Z,8.12
2023-05-05T03:41:05.910Z,8.22
2023-05-05T03:43:32.588Z,8.37
2023-05-05T03:45:59.299Z,8.32
2023-05-05T03:48:27.549Z,8.30
2023-05-05T03:50:54.250Z,8.49
2023-05-05T03:53:20.932Z,8.57
2023-05-05T03:55:47.856Z,8.77
2023-05-05T03:58:14.535Z,9.00
2023-05-05T04:00:41.191Z,9.21
2023-05-05T04:03:08.032Z,9.59
2023-05-05T04:05:36.292Z,9.90
2023-05-05T04:08:03.098Z,10.15
2023-05-05T04:10:29.833Z,10.56
2023-05-05T04:12:56.692Z,10.87
2023-05-05T04:15:23.655Z,10.99
2023-05-05T04:17:50.439Z,11.11
2023-05-05T04:20:17.371Z,11.38
2023-05-05T04:22:45.410Z,11.66
2023-05-05T04:25:12.203Z,11.94
2023-05-05T04:27:38.893Z,11.72
2023-05-05T04:30:06.740Z,11.94
2023-05-05T04:32:33.629Z,11.93
2023-05-05T04:35:00.373Z,11.89
2023-05-05T04:37:27.106Z,12.09
2023-05-05T04:39:55.192Z,12.31
2023-05-05T04:42:21.853Z,12.84
2023-05-05T04:44:48.521Z,13.26
2023-05-05T04:47:15.332Z,13.86
2023-05-05T04:49:42.007Z,14.32
2023-05-05T04:52:08.675Z,14.42
2023-05-05T04:54:35.740Z,14.60
2023-05-05T04:57:03.876Z,14.43
2023-05-05T04:59:30.559Z,14.81
2023-05-05T05:01:57.433Z,15.02
2023-05-05T05:04:24.147Z,15.18
2023-05-05T05:06:50.893Z,15.73
2023-05-05T05:09:17.881Z,15.76
2023-05-05T05:11:44.552Z,16.05
2023-05-05T05:14:12.608Z,16.65
2023-05-05T05:16:39.689Z,16.11
2023-05-05T05:19:06.441Z,15.53
2023-05-05T05:21:33.159Z,15.84
2023-05-05T05:23:59.862Z,17.23
2023-05-05T05:26:26.552Z,18.68
2023-05-05T05:28:53.248Z,19.18
2023-05-05T05:31:21.666Z,20.59
2023-05-05T05:33:48.347Z,20.97
2023-05-05T05:36:15.030Z,21.04
2023-05-05T05:38:41.763Z,21.48
2023-05-05T05:41:08.426Z,21.39
2023-05-05T05:43:35.075Z,21.45
2023-05-05T05:46:01.893Z,19.24
2023-05-05T05:48:30.064Z,17.97
2023-05-05T05:50:56.736Z,17.78
2023-05-05T05:53:23.471Z,18.78
2023-05-05T05:55:50.164Z,17.37
2023-05-05T05:58:16.806Z,16.31
2023-05-05T06:00:43.516Z,17.71
2023-05-05T06:03:10.251Z,17.40
2023-05-05T06:05:38.408Z,16.92
2023-05-05T06:08:05.233Z,16.07
2023-05-05T06:10:32.154Z,17.28
2023-05-05T06:12:59.072Z,17.19
2023-05-05T06:15:25.963Z,17.81
2023-05-05T06:17:52.699Z,17.57
2023-05-05T06:20:19.425Z,17.23
2023-05-05T06:22:47.722Z,17.07
2023-05-05T06:25:14.595Z,17.75
2023-05-05T06:27:41.322Z,18.55
2023-05-05T06:30:09.086Z,18.02
2023-05-05T06:32:36.029Z,19.01
2023-05-05T06:35:02.803Z,18.37
2023-05-05T06:37:29.567Z,17.55
2023-05-05T06:39:57.633Z,17.69
2023-05-05T06:42:24.298Z,19.61
2023-05-05T06:44:51.205Z,17.47
2023-05-05T06:47:18.022Z,17.92
2023-05-05T06:49:44.708Z,18.22
2023-05-05T06:52:11.433Z,17.93
2023-05-05T06:54:38.243Z,18.63
2023-05-05T06:57:06.983Z,19.92
2023-05-05T06:59:33.776Z,19.78
2023-05-05T07:02:00.463Z,19.91
2023-05-05T07:04:27.139Z,18.92
2023-05-05T07:06:53.858Z,19.47
2023-05-05T07:09:20.554Z,19.70
2023-05-05T07:11:47.351Z,19.40
2023-05-05T07:14:15.474Z,20.88
2023-05-05T07:16:42.207Z,18.87
2023-05-05T07:19:09.003Z,21.94
2023-05-05T07:21:35.754Z,22.84
2023-05-05T07:24:02.616Z,22.29
2023-05-05T07:26:29.283Z,26.42
2023-05-05T07:28:56.061Z,21.99
2023-05-05T07:31:24.140Z,22.04
2023-05-05T07:33:50.888Z,24.25
2023-05-05T07:36:17.647Z,24.74
2023-05-05T07:38:44.366Z,23.94
2023-05-05T07:41:11.026Z,25.08
2023-05-05T07:43:39.340Z,23.67
2023-05-05T07:46:06.450Z,23.53
2023-05-05T07:48:34.552Z,25.04
2023-05-05T07:51:01.256Z,24.08
2023-05-05T07:53:27.946Z,23.61
2023-05-05T07:55:54.640Z,24.50
2023-05-05T07:58:21.419Z,26.27
2023-05-05T08:00:48.141Z,27.36
2023-05-05T08:03:14.848Z,30.56
2023-05-05T08:05:42.987Z,28.91
2023-05-05T08:08:09.636Z,25.86
2023-05-05T08:10:36.303Z,25.43
2023-05-05T08:13:03.095Z,29.72
2023-05-05T08:15:29.805Z,30.59
2023-05-05T08:17:56.527Z,30.08
2023-05-05T08:20:27.581Z,30.51
2023-05-05T08:22:55.618Z,29.39
2023-05-05T08:25:22.357Z,28.23
2023-05-05T08:27:49.214Z,26.67
2023-05-05T08:30:16.054Z,29.08
2023-05-05T08:32:42.788Z,31.84
2023-05-05T08:35:12.517Z,26.32
2023-05-05T08:37:39.507Z,29.76
2023-05-05T08:40:09.914Z,32.13
2023-05-05T08:42:38.772Z,31.85
2023-05-05T08:45:07.373Z,33.35
2023-05-05T08:47:34.616Z,36.26
2023-05-05T08:50:01.333Z,35.23
2023-05-05T08:52:29.467Z,35.82
2023-05-05T08:54:57.686Z,36.63
2023-05-05T08:57:29.195Z,35.53
2023-05-05T08:59:56.033Z,33.86
2023-05-05T09:02:24.151Z,34.99
2023-05-05T09:04:51.746Z,38.10
2023-05-05T09:07:18.572Z,38.20
2023-05-05T09:09:45.312Z,33.15
2023-05-05T09:12:12.025Z,36.60
2023-05-05T09:14:40.104Z,33.59
2023-05-05T09:17:06.956Z,35.34
2023-05-05T09:19:33.761Z,35.37
2023-05-05T09:22:00.447Z,32.10
2023-05-05T09:24:27.202Z,29.87
2023-05-05T09:26:53.958Z,32.61
2023-05-05T09:29:20.683Z,30.99
2023-05-05T09:32:01.196Z,33.32
2023-05-05T09:34:27.888Z,28.52
2023-05-05T09:36:54.613Z,30.66
2023-05-05T09:39:21.297Z,35.62
2023-05-05T09:41:50.748Z,33.21
2023-05-05T09:44:17.507Z,31.58
2023-05-05T09:46:49.830Z,32.77
2023-05-05T09:49:18.741Z,35.57
2023-05-05T09:51:45.530Z,34.66
2023-05-05T09:54:22.405Z,32.01
2023-05-05T09:56:49.080Z,32.91
2023-05-05T09:59:15.782Z,33.29
2023-05-05T10:01:42.577Z,32.73
2023-05-05T10:04:23.638Z,33.35
2023-05-05T10:06:50.370Z,36.82
2023-05-05T10:09:17.057Z,33.60
2023-05-05T10:11:45.311Z,32.92
2023-05-05T10:14:13.023Z,32.68
2023-05-05T10:16:39.965Z,30.17
2023-05-05T10:19:06.696Z,31.71
2023-05-05T10:21:35.851Z,32.10
2023-05-05T10:24:06.907Z,33.87
2023-05-05T10:26:34.241Z,33.33
2023-05-05T10:29:00.979Z,30.61
2023-05-05T10:31:29.966Z,32.80
2023-05-05T10:34:00.325Z,33.15
2023-05-05T10:36:27.204Z,33.81
2023-05-05T10:38:56.495Z,35.74
2023-05-05T10:41:23.174Z,36.55
2023-05-05T10:43:50.026Z,37.64
2023-05-05T10:46:16.781Z,35.09
2023-05-05T10:48:46.925Z,34.18
2023-05-05T10:51:30.958Z,33.11
2023-05-05T10:54:07.718Z,38.34
2023-05-05T10:56:35.065Z,36.05
2023-05-05T10:59:01.746Z,37.42
2023-05-05T11:01:32.111Z,34.76
2023-05-05T11:04:18.451Z,33.41
2023-05-05T11:07:21.224Z,35.12
2023-05-05T11:09:56.521Z,39.20
2023-05-05T11:12:23.306Z,40.96
2023-05-05T11:15:23.072Z,37.37
2023-05-05T11:17:49.938Z,38.55
2023-05-05T11:20:16.690Z,37.08
2023-05-05T11:23:22.301Z,36.32
2023-05-05T11:25:50.542Z,32.74
2023-05-05T11:28:17.777Z,34.27
2023-05-05T11:31:18.328Z,35.67
2023-05-05T11:33:45.164Z,33.55
2023-05-05T11:36:12.338Z,30.56
2023-05-05T11:38:44.241Z,35.00
2023-05-05T11:41:13.340Z,37.69
2023-05-05T11:43:40.237Z,31.89
2023-05-05T11:46:10.239Z,31.54
2023-05-05T11:48:44.158Z,30.80
2023-05-05T11:51:11.652Z,29.35
2023-05-05T11:53:41.345Z,30.14
2023-05-05T11:56:08.654Z,29.90
2023-05-05T11:58:37.425Z,27.69
2023-05-05T12:01:06.956Z,29.39
2023-05-05T12:03:36.694Z,25.89
2023-05-05T12:06:03.844Z,28.25
2023-05-05T12:08:35.723Z,28.65
2023-05-05T12:11:02.875Z,27.26
2023-05-05T12:13:29.593Z,33.08
2023-05-05T12:16:07.675Z,31.69
2023-05-05T12:18:34.493Z,35.47
2023-05-05T12:21:01.308Z,36.28
2023-05-05T12:23:27.997Z,34.92
2023-05-05T12:25:54.754Z,33.59
2023-05-05T12:28:21.466Z,33.59
2023-05-05T12:30:57.282Z,30.79
2023-05-05T12:33:24.017Z,31.04
2023-05-05T12:35:50.875Z,31.96
2023-05-05T12:38:17.631Z,30.52
2023-05-05T12:40:45.545Z,27.68
2023-05-05T12:43:27.555Z,26.99
2023-05-05T12:46:09.693Z,31.23
2023-05-05T12:48:36.950Z,33.14
2023-05-05T12:51:17.542Z,34.24
2023-05-05T12:53:44.411Z,33.77
2023-05-05T12:56:33.528Z,36.36
2023-05-05T12:59:00.885Z,39.13
2023-05-05T13:01:29.102Z,36.95
2023-05-05T13:04:08.977Z,35.51
2023-05-05T13:06:35.661Z,30.11
2023-05-05T13:09:02.384Z,29.88
2023-05-05T13:11:29.163Z,30.32
2023-05-05T13:13:55.797Z,28.04
2023-05-05T13:16:22.626Z,27.78
2023-05-05T13:18:50.937Z,27.34
2023-05-05T13:21:17.626Z,27.61
2023-05-05T13:23:44.467Z,27.72
2023-05-05T13:26:11.340Z,29.69
2023-05-05T13:28:38.042Z,27.62
2023-05-05T13:31:04.842Z,25.86
2023-05-05T13:33:33.116Z,29.08
2023-05-05T13:36:01.341Z,31.90
2023-05-05T13:38:27.990Z,31.37
2023-05-05T13:40:54.714Z,28.63
2023-05-05T13:43:21.463Z,27.98
2023-05-05T13:45:48.155Z,31.30
2023-05-05T13:48:15.001Z,33.15
2023-05-05T13:50:41.764Z,33.60
2023-05-05T13:53:09.882Z,32.05
2023-05-05T13:55:36.668Z,31.47
2023-05-05T13:58:04.667Z,32.30
2023-05-05T14:00:31.481Z,31.95
2023-05-05T14:02:58.672Z,29.98
2023-05-05T14:05:25.382Z,30.69
2023-05-05T14:07:52.062Z,31.58
2023-05-05T14:10:20.136Z,33.18
2023-05-05T14:12:46.821Z,33.60
2023-05-05T14:15:13.529Z,33.58
2023-05-05T14:17:40.257Z,33.00
2023-05-05T14:20:07.968Z,31.45
2023-05-05T14:22:34.635Z,32.04
2023-05-05T14:25:01.432Z,32.83
2023-05-05T14:27:29.460Z,32.09
2023-05-05T14:29:56.140Z,34.01
2023-05-05T14:32:22.939Z,31.69
2023-05-05T14:34:50.546Z,34.48
2023-05-05T14:37:17.364Z,30.29
2023-05-05T14:39:44.073Z,32.84
2023-05-05T14:42:10.747Z,32.19
2023-05-05T14:44:38.786Z,32.71
2023-05-05T14:47:05.542Z,32.08
2023-05-05T14:49:32.318Z,32.10
2023-05-05T14:51:59.034Z,33.50
2023-05-05T14:54:28.886Z,31.58
2023-05-05T14:56:55.875Z,31.17
2023-05-05T14:59:22.675Z,31.78
2023-05-05T15:01:53.656Z,32.09
2023-05-05T15:04:20.390Z,30.66
2023-05-05T15:06:47.072Z,29.84
2023-05-05T15:09:13.953Z,31.26
2023-05-05T15:11:40.612Z,32.25
2023-05-05T15:14:07.470Z,31.82
2023-05-05T15:16:35.327Z,33.08
2023-05-05T15:19:03.765Z,29.08
2023-05-05T15:21:30.544Z,29.50
2023-05-05T15:23:57.233Z,27.40
2023-05-05T15:26:23.928Z,28.26
2023-05-05T15:28:50.573Z,24.55
2023-05-05T15:31:17.337Z,25.15
2023-05-05T15:33:44.079Z,25.94
2023-05-05T15:36:12.666Z,25.75
2023-05-05T15:38:41.127Z,25.59
2023-05-05T15:41:07.787Z,25.39
2023-05-05T15:43:34.463Z,25.89
2023-05-05T15:46:01.183Z,26.35
2023-05-05T15:48:28.293Z,26.25
2023-05-05T15:50:54.980Z,24.84
2023-05-05T15:53:23.055Z,25.97
2023-05-05T15:55:49.754Z,25.69
2023-05-05T15:58:16.423Z,26.03
2023-05-05T16:00:43.112Z,25.42
2023-05-05T16:03:09.824Z,25.42
2023-05-05T16:05:36.488Z,25.27
2023-05-05T16:08:03.353Z,25.70
2023-05-05T16:10:31.386Z,26.49
2023-05-05T16:12:58.102Z,26.21
2023-05-05T16:15:24.962Z,26.20
2023-05-05T16:17:51.682Z,26.47
2023-05-05T16:20:18.453Z,26.34
2023-05-05T16:22:45.154Z,27.04
2023-05-05T16:25:11.877Z,26.82
2023-05-05T16:27:39.997Z,26.42
2023-05-05T16:30:08.228Z,25.22
2023-05-05T16:32:34.906Z,24.42
2023-05-05T16:35:01.596Z,24.49
2023-05-05T16:37:28.393Z,24.73
2023-05-05T16:39:55.171Z,23.97
2023-05-05T16:42:21.873Z,23.36
2023-05-05T16:44:49.982Z,23.50
2023-05-05T16:47:16.648Z,22.68
2023-05-05T16:49:43.495Z,22.45
2023-05-05T16:52:10.249Z,22.20
2023-05-05T16:54:36.923Z,21.89
2023-05-05T16:57:03.758Z,21.69
2023-05-05T16:59:31.603Z,21.62
2023-05-05T17:01:59.885Z,21.59
2023-05-05T17:04:26.636Z,21.53
2023-05-05T17:06:53.323Z,21.49
2023-05-05T17:09:20.006Z,21.37
2023-05-05T17:11:46.708Z,21.21
2023-05-05T17:14:13.495Z,21.04
2023-05-05T17:16:40.167Z,20.93
2023-05-05T17:19:08.290Z,20.77
2023-05-05T17:21:35.120Z,20.66
2023-05-05T17:24:01.782Z,20.55
2023-05-05T17:26:28.473Z,20.43
2023-05-05T17:28:55.187Z,20.18
2023-05-05T17:31:21.918Z,20.02
2023-05-05T17:33:48.725Z,19.97
2023-05-05T17:36:16.847Z,19.77
2023-05-05T17:38:43.502Z,19.54
2023-05-05T17:41:10.138Z,19.39
2023-05-05T17:43:36.810Z,19.26
2023-05-05T17:46:03.512Z,19.19
2023-05-05T17:48:30.191Z,18.96
2023-05-05T17:50:56.904Z,18.92
2023-05-05T17:53:25.062Z,18.98
2023-05-05T17:55:51.751Z,18.72
2023-05-05T17:58:18.470Z,18.65
2023-05-05T18:00:45.177Z,18.26
2023-05-05T18:03:11.999Z,18.20
2023-05-05T18:05:38.806Z,18.05
2023-05-05T18:08:05.791Z,17.85
2023-05-05T18:10:33.907Z,17.96
2023-05-05T18:13:00.602Z,17.75
2023-05-05T18:15:27.529Z,17.38
2023-05-05T18:17:54.222Z,17.13
2023-05-05T18:20:20.930Z,16.80
2023-05-05T18:22:48.376Z,16.96
2023-05-05T18:25:15.022Z,16.80
2023-05-05T18:27:43.264Z,16.45
2023-05-05T18:30:10.524Z,16.21
2023-05-05T18:32:37.291Z,15.50
2023-05-05T18:35:04.708Z,15.08
2023-05-05T18:37:31.419Z,15.01
2023-05-05T18:39:58.081Z,15.18
2023-05-05T18:42:24.830Z,14.95
2023-05-05T18:44:52.895Z,14.81
2023-05-05T18:47:19.536Z,14.69
2023-05-05T18:49:46.294Z,14.50
2023-05-05T18:52:12.950Z,14.36
2023-05-05T18:54:39.636Z,14.23
2023-05-05T18:57:06.377Z,14.25
2023-05-05T18:59:33.033Z,14.08
2023-05-05T19:02:01.111Z,14.53
2023-05-05T19:04:31.822Z,14.47
2023-05-05T19:06:58.681Z,13.95
2023-05-05T19:09:25.412Z,13.70
2023-05-05T19:11:52.137Z,13.64
2023-05-05T19:14:18.884Z,13.54
2023-05-05T19:16:45.673Z,13.37
2023-05-05T19:19:13.974Z,13.85
2023-05-05T19:21:40.826Z,13.86
2023-05-05T19:24:08.184Z,13.51
2023-05-05T19:26:34.880Z,13.10
2023-05-05T19:29:01.544Z,13.09
2023-05-05T19:31:28.291Z,13.03
2023-05-05T19:33:59.154Z,12.86
2023-05-05T19:36:27.244Z,13.07
2023-05-05T19:38:54.165Z,12.82
2023-05-05T19:41:20.932Z,12.75
2023-05-05T19:43:47.630Z,12.67
2023-05-05T19:46:14.505Z,12.75
2023-05-05T19:48:41.386Z,12.58
2023-05-05T19:51:08.079Z,12.48
2023-05-05T19:53:36.142Z,12.45
2023-05-05T19:56:02.925Z,12.58
2023-05-05T19:58:29.619Z,12.37
2023-05-05T20:00:56.279Z,12.38
2023-05-05T20:03:23.084Z,12.48
2023-05-05T20:05:49.826Z,12.26
2023-05-05T20:08:16.496Z,12.34
2023-05-05T20:10:45.095Z,12.34
2023-05-05T20:13:11.808Z,12.07
2023-05-05T20:15:38.530Z,11.93
2023-05-05T20:18:05.451Z,11.83
2023-05-05T20:20:32.178Z,11.68
2023-05-05T20:22:58.851Z,12.00
2023-05-05T20:25:25.652Z,11.87
2023-05-05T20:27:53.741Z,11.69
2023-05-05T20:30:20.464Z,11.66
2023-05-05T20:32:47.244Z,11.58
2023-05-05T20:35:13.959Z,11.50
2023-05-05T20:37:40.797Z,11.57
2023-05-05T20:40:09.160Z,11.57
2023-05-05T20:42:36.075Z,11.93
2023-05-05T20:45:05.095Z,11.97
2023-05-05T20:47:33.220Z,11.72
2023-05-05T20:49:59.898Z,11.41
2023-05-05T20:52:26.548Z,11.32
2023-05-05T20:54:53.261Z,11.36
2023-05-05T20:57:19.983Z,11.18
2023-05-05T20:59:46.744Z,11.18
2023-05-05T21:02:15.049Z,11.71
2023-05-05T21:04:41.902Z,11.78
2023-05-05T21:07:08.692Z,11.44
2023-05-05T21:09:35.473Z,11.27
2023-05-05T21:12:02.164Z,11.24
2023-05-05T21:14:28.944Z,11.08
2023-05-05T21:16:55.727Z,11.03
2023-05-05T21:19:23.940Z,10.94
2023-05-05T21:21:50.627Z,10.99
2023-05-05T21:24:17.354Z,11.11
2023-05-05T21:26:44.049Z,11.06
2023-05-05T21:29:10.962Z,11.20
2023-05-05T21:31:37.740Z,11.03
2023-05-05T21:34:04.499Z,10.97
2023-05-05T21:36:32.625Z,10.90
2023-05-05T21:39:00.505Z,10.72
2023-05-05T21:41:27.319Z,10.57
2023-05-05T21:43:54.037Z,10.53
2023-05-05T21:46:20.942Z,10.93
2023-05-05T21:48:47.741Z,10.70
2023-05-05T21:51:14.505Z,10.55
2023-05-05T21:53:42.622Z,10.45
2023-05-05T21:56:09.387Z,10.42
2023-05-05T21:58:36.122Z,10.42
2023-05-05T22:01:02.853Z,10.26
2023-05-05T22:03:29.623Z,10.32
2023-05-05T22:05:56.577Z,10.26
2023-05-05T22:08:23.344Z,10.15
2023-05-05T22:10:51.763Z,10.19
2023-05-05T22:13:18.615Z,10.09
2023-05-05T22:15:47.485Z,10.07
2023-05-05T22:18:14.685Z,10.22
2023-05-05T22:20:41.400Z,10.04
2023-05-05T22:23:08.114Z,9.93
2023-05-05T22:25:35.124Z,9.98
2023-05-05T22:28:03.434Z,9.97
2023-05-05T22:30:30.160Z,9.93
2023-05-05T22:32:56.859Z,10.05
2023-05-05T22:35:23.551Z,9.97
2023-05-05T22:37:50.342Z,10.09
2023-05-05T22:40:17.270Z,10.01
2023-05-05T22:42:43.956Z,10.05
2023-05-05T22:45:12.777Z,9.95
2023-05-05T22:47:39.482Z,9.94
2023-05-05T22:50:07.465Z,10.12
2023-05-05T22:52:34.401Z,9.93
2023-05-05T22:55:01.120Z,9.77
2023-05-05T22:57:27.829Z,9.84
2023-05-05T22:59:54.585Z,9.77
2023-05-05T23:02:22.781Z,9.74
2023-05-05T23:04:49.647Z,9.61
2023-05-05T23:07:16.444Z,9.86
2023-05-05T23:09:43.104Z,9.80
2023-05-05T23:12:09.765Z,9.54
2023-05-05T23:14:36.514Z,9.56
2023-05-05T23:17:03.253Z,9.61
2023-05-05T23:19:31.479Z,9.80
2023-05-05T23:21:58.393Z,9.95
2023-05-05T23:24:25.136Z,9.94
2023-05-05T23:26:51.832Z,9.78
2023-05-05T23:29:18.618Z,9.67
2023-05-05T23:31:45.375Z,9.61
2023-05-05T23:34:12.188Z,9.77
2023-05-05T23:36:40.237Z,9.66
2023-05-05T23:39:06.906Z,9.69
2023-05-05T23:41:33.591Z,9.71
2023-05-05T23:44:00.271Z,9.67
2023-05-05T23:46:27.020Z,9.61
2023-05-05T23:48:53.729Z,9.54
2023-05-05T23:51:20.429Z,9.73
2023-05-05T23:53:48.487Z,9.47
2023-05-05T23:56:15.179Z,9.32
2023-05-05T23:58:41.995Z,9.26
